Time;durP1;ratioP1;P1;durP2;ratioP2;P2;SDS_P1;SDS_P2;PMS_P1;PMS_P2;Temp;Humidity;BMP_temperature;BMP_pressure;BME280_temperature;BME280_humidity;BME280_pressure;Samples;Min_cycle;Max_cycle;Signal;HPM_P1;HPM_P2
2023/05/04 00:00:41;;;;;;;20.53;10.33;;;9.30;92.00;;;;;;5042969;28;20490;-62
2023/05/04 00:03:06;;;;;;;12.43;9.30;;;9.30;92.20;;;;;;5061803;28;20265;-60
2023/05/04 00:05:32;;;;;;;14.93;9.60;;;9.20;92.20;;;;;;5061019;28;20224;-61
2023/05/04 00:07:57;;;;;;;11.13;8.97;;;9.20;92.50;;;;;;5044586;28;20206;-60
2023/05/04 00:10:23;;;;;;;12.13;9.43;;;9.20;92.90;;;;;;5057502;28;20202;-60
2023/05/04 00:12:48;;;;;;;12.33;9.57;;;9.20;93.40;;;;;;5062457;28;20182;-61
2023/05/04 00:15:14;;;;;;;12.27;9.93;;;9.10;94.20;;;;;;5064207;28;20749;-61
2023/05/04 00:17:40;;;;;;;14.70;10.20;;;9.10;94.40;;;;;;5060557;28;20878;-60
2023/05/04 00:20:06;;;;;;;13.93;9.93;;;9.20;94.50;;;;;;5059565;28;20182;-60
2023/05/04 00:22:32;;;;;;;12.70;9.83;;;9.10;94.60;;;;;;5056729;28;20180;-61
2023/05/04 00:24:57;;;;;;;13.37;10.17;;;9.10;94.50;;;;;;5065364;28;20885;-61
2023/05/04 00:27:23;;;;;;;15.77;9.27;;;9.10;94.70;;;;;;5045985;28;20639;-61
2023/05/04 00:29:48;;;;;;;10.87;8.83;;;9.10;94.50;;;;;;5064260;28;20186;-62
2023/05/04 00:32:14;;;;;;;14.83;9.80;;;9.10;95.00;;;;;;5045096;28;20231;-61
2023/05/04 00:34:40;;;;;;;12.97;10.40;;;9.10;94.90;;;;;;5062699;28;20598;-61
2023/05/04 00:37:05;;;;;;;11.83;9.80;;;9.00;95.10;;;;;;5057515;28;20565;-61
2023/05/04 00:39:34;;;;;;;12.07;9.90;;;9.00;95.40;;;;;;5059772;28;20174;-61
2023/05/04 00:41:59;;;;;;;15.27;9.63;;;9.00;95.70;;;;;;5063725;28;20264;-61
2023/05/04 00:44:26;;;;;;;13.07;9.53;;;9.00;95.60;;;;;;5059164;28;20483;-61
2023/05/04 00:46:52;;;;;;;14.60;9.20;;;8.90;95.80;;;;;;5062160;28;20179;-60
2023/05/04 00:49:18;;;;;;;14.00;10.73;;;9.00;96.00;;;;;;5065273;28;20431;-61
2023/05/04 00:51:46;;;;;;;13.20;9.97;;;8.90;96.00;;;;;;5062172;28;20424;-61
2023/05/04 00:54:13;;;;;;;15.37;9.90;;;8.90;96.00;;;;;;5061707;28;20439;-61
2023/05/04 00:56:42;;;;;;;14.67;10.10;;;8.80;96.50;;;;;;5060788;28;20428;-61
2023/05/04 00:59:07;;;;;;;15.70;10.57;;;8.80;96.70;;;;;;5059042;28;21074;-61
2023/05/04 01:01:33;;;;;;;17.83;10.63;;;8.80;97.50;;;;;;5059060;28;20512;-61
2023/05/04 01:03:59;;;;;;;13.17;10.03;;;8.80;98.00;;;;;;5067779;28;20222;-61
2023/05/04 01:06:31;;;;;;;15.07;10.10;;;8.80;98.40;;;;;;5062258;28;20284;-61
2023/05/04 01:09:09;;;;;;;14.33;10.33;;;8.80;98.40;;;;;;5066638;28;20174;-61
2023/05/04 01:12:07;;;;;;;12.13;9.87;;;8.70;98.60;;;;;;5056061;28;20515;-61
2023/05/04 01:14:36;;;;;;;13.63;10.60;;;8.70;99.40;;;;;;5064414;28;20942;-61
2023/05/04 01:17:06;;;;;;;14.57;10.80;;;8.70;99.90;;;;;;5063657;28;20439;-61
2023/05/04 01:19:32;;;;;;;15.90;11.00;;;8.60;99.90;;;;;;5067104;28;20464;-61
2023/05/04 01:21:57;;;;;;;13.60;10.90;;;8.60;99.90;;;;;;5060569;28;20430;-61
2023/05/04 01:24:25;;;;;;;13.60;10.90;;;8.60;99.90;;;;;;5064618;28;20812;-61
2023/05/04 01:27:23;;;;;;;16.33;11.30;;;8.60;99.90;;;;;;5061991;28;20170;-61
2023/05/04 01:30:00;;;;;;;15.03;10.17;;;8.60;99.90;;;;;;5058469;28;20597;-61
2023/05/04 01:32:30;;;;;;;13.13;10.33;;;8.60;99.90;;;;;;5068049;28;20531;-61
2023/05/04 01:34:56;;;;;;;16.33;10.63;;;8.60;99.90;;;;;;5062457;28;20555;-60
2023/05/04 01:37:22;;;;;;;14.97;10.43;;;8.60;99.90;;;;;;5062761;28;20437;-60
2023/05/04 01:39:48;;;;;;;15.53;11.60;;;8.50;99.90;;;;;;5045769;28;20440;-60
2023/05/04 01:42:13;;;;;;;13.90;10.40;;;8.50;99.90;;;;;;5063164;28;20320;-60
2023/05/04 01:44:39;;;;;;;19.33;10.97;;;8.50;99.90;;;;;;5063273;28;20997;-60
2023/05/04 01:47:05;;;;;;;16.23;11.57;;;8.40;99.90;;;;;;5046172;28;20693;-60
2023/05/04 01:49:31;;;;;;;20.97;10.80;;;8.40;99.90;;;;;;5059422;28;20521;-60
2023/05/04 01:51:56;;;;;;;19.07;10.63;;;8.40;99.90;;;;;;5062572;28;20265;-60
2023/05/04 01:54:22;;;;;;;17.80;11.87;;;8.40;99.90;;;;;;5064931;28;20203;-60
2023/05/04 01:56:48;;;;;;;15.40;11.67;;;8.40;99.90;;;;;;5063325;28;20174;-60
2023/05/04 01:59:13;;;;;;;20.10;10.87;;;8.40;99.90;;;;;;5066230;28;20170;-60
2023/05/04 02:01:39;;;;;;;16.60;11.30;;;8.40;99.90;;;;;;5064665;28;20650;-60
2023/05/04 02:04:04;;;;;;;16.60;11.20;;;8.30;99.90;;;;;;5067447;28;20286;-60
2023/05/04 02:06:30;;;;;;;18.43;12.03;;;8.30;99.90;;;;;;5061132;28;20166;-60
2023/05/04 02:08:56;;;;;;;18.23;11.97;;;8.30;99.90;;;;;;5063197;28;20697;-60
2023/05/04 02:11:21;;;;;;;20.07;11.67;;;8.30;99.90;;;;;;5059438;28;20254;-60
2023/05/04 02:13:47;;;;;;;15.57;11.27;;;8.30;99.90;;;;;;5044982;28;20619;-60
2023/05/04 02:16:12;;;;;;;15.23;11.13;;;8.20;99.90;;;;;;5062840;28;20294;-61
2023/05/04 02:18:38;;;;;;;18.80;11.00;;;8.20;99.90;;;;;;5061861;28;20186;-60
2023/05/04 02:21:04;;;;;;;15.40;11.70;;;8.20;99.90;;;;;;5059278;28;20804;-61
2023/05/04 02:23:29;;;;;;;16.67;12.47;;;8.20;99.90;;;;;;5058324;28;20166;-60
2023/05/04 02:25:55;;;;;;;17.33;11.73;;;8.20;99.90;;;;;;5064115;28;20634;-61
2023/05/04 02:28:21;;;;;;;18.87;11.80;;;8.10;99.90;;;;;;5062919;28;20179;-61
2023/05/04 02:30:46;;;;;;;17.13;12.13;;;8.10;99.90;;;;;;5059846;28;20231;-61
2023/05/04 02:33:12;;;;;;;18.07;12.33;;;8.00;99.90;;;;;;5061731;28;20170;-60
2023/05/04 02:35:38;;;;;;;16.87;12.57;;;8.00;99.90;;;;;;5057632;28;20206;-61
2023/05/04 02:38:03;;;;;;;19.77;12.70;;;8.00;99.90;;;;;;5057103;28;20194;-60
2023/05/04 02:40:29;;;;;;;26.43;12.17;;;8.00;99.90;;;;;;5063133;28;20208;-61
2023/05/04 02:42:54;;;;;;;18.87;12.00;;;8.00;99.90;;;;;;5066275;28;20257;-61
2023/05/04 02:45:20;;;;;;;18.10;12.80;;;8.00;99.90;;;;;;5043211;28;20202;-61
2023/05/04 02:47:46;;;;;;;19.83;12.03;;;8.10;99.90;;;;;;5062515;28;20183;-61
2023/05/04 02:50:12;;;;;;;17.07;12.93;;;8.10;99.90;;;;;;5065668;28;20186;-60
2023/05/04 02:52:37;;;;;;;22.03;13.97;;;8.10;99.90;;;;;;5065634;28;20177;-61
2023/05/04 02:55:03;;;;;;;20.53;13.10;;;8.10;99.90;;;;;;5060955;28;22279;-61
2023/05/04 02:57:29;;;;;;;20.47;12.73;;;8.10;99.90;;;;;;5064410;28;20201;-60
2023/05/04 02:59:55;;;;;;;19.37;13.47;;;8.10;99.90;;;;;;5065011;28;20185;-61
2023/05/04 03:02:20;;;;;;;18.17;12.60;;;8.10;99.90;;;;;;5064641;28;20178;-61
2023/05/04 03:04:46;;;;;;;21.20;13.47;;;8.10;99.90;;;;;;5044932;28;20202;-61
2023/05/04 03:07:12;;;;;;;22.20;14.03;;;8.10;99.90;;;;;;5061343;28;20179;-61
2023/05/04 03:09:37;;;;;;;20.53;14.53;;;8.10;99.90;;;;;;5063047;28;20201;-61
2023/05/04 03:12:03;;;;;;;21.43;14.50;;;8.10;99.90;;;;;;5046300;28;20579;-61
2023/05/04 03:14:30;;;;;;;19.77;14.07;;;8.20;99.90;;;;;;5062183;28;20213;-61
2023/05/04 03:16:56;;;;;;;23.07;14.07;;;8.20;99.90;;;;;;5063658;28;20187;-60
2023/05/04 03:19:22;;;;;;;22.30;14.40;;;8.20;99.90;;;;;;5066051;28;20425;-61
2023/05/04 03:21:48;;;;;;;23.77;15.60;;;8.20;99.90;;;;;;5057274;28;20436;-61
2023/05/04 03:24:15;;;;;;;26.37;14.27;;;8.20;99.90;;;;;;5066636;28;20452;-61
2023/05/04 03:26:41;;;;;;;21.03;13.13;;;8.20;99.90;;;;;;5058048;28;20259;-60
2023/05/04 03:29:07;;;;;;;22.03;13.90;;;8.20;99.90;;;;;;5044751;28;21709;-60
2023/05/04 03:31:32;;;;;;;17.50;12.73;;;8.20;99.90;;;;;;5055055;28;20186;-60
2023/05/04 03:33:58;;;;;;;22.33;14.73;;;8.10;99.90;;;;;;5064687;28;20739;-60
2023/05/04 03:36:23;;;;;;;19.17;13.37;;;8.10;99.90;;;;;;5043279;28;20185;-60
2023/05/04 03:38:50;;;;;;;17.50;12.17;;;8.00;99.90;;;;;;5065096;28;20722;-60
2023/05/04 03:41:15;;;;;;;18.80;12.53;;;8.00;99.90;;;;;;5055745;28;20474;-60
2023/05/04 03:43:41;;;;;;;18.53;12.00;;;7.90;99.90;;;;;;5043429;28;20477;-61
2023/05/04 03:46:07;;;;;;;20.37;13.07;;;7.90;99.90;;;;;;5065179;28;20201;-61
2023/05/04 03:48:32;;;;;;;19.03;13.83;;;7.80;99.90;;;;;;5061832;28;20175;-61
2023/05/04 03:50:58;;;;;;;18.17;12.03;;;7.80;99.90;;;;;;5058526;28;20170;-61
2023/05/04 03:53:24;;;;;;;18.20;12.50;;;7.70;99.90;;;;;;5058873;28;20177;-61
2023/05/04 03:55:50;;;;;;;17.27;12.70;;;7.70;99.90;;;;;;5059936;28;20573;-61
2023/05/04 03:58:15;;;;;;;16.77;12.03;;;7.60;99.90;;;;;;5065833;28;20519;-60
2023/05/04 04:00:41;;;;;;;20.93;12.97;;;7.60;99.90;;;;;;5056752;28;20554;-61
2023/05/04 04:03:07;;;;;;;18.63;12.60;;;7.60;99.90;;;;;;5058805;28;20187;-61
2023/05/04 04:05:32;;;;;;;21.03;12.50;;;7.50;99.90;;;;;;5058814;28;20201;-58
2023/05/04 04:07:58;;;;;;;25.70;14.77;;;7.50;99.90;;;;;;5062510;28;20520;-57
2023/05/04 04:10:24;;;;;;;28.17;12.70;;;7.50;99.90;;;;;;5037893;28;20208;-58
2023/05/04 04:12:49;;;;;;;18.40;13.57;;;7.40;99.90;;;;;;5057614;28;20186;-57
2023/05/04 04:15:15;;;;;;;18.87;12.40;;;7.40;99.90;;;;;;5059373;28;20742;-57
2023/05/04 04:17:40;;;;;;;17.40;12.83;;;7.40;99.90;;;;;;5059796;28;20550;-57
2023/05/04 04:20:07;;;;;;;17.13;11.93;;;7.40;99.90;;;;;;5044851;28;20183;-56
2023/05/04 04:22:34;;;;;;;18.53;12.47;;;7.40;99.90;;;;;;5050766;28;20180;-56
2023/05/04 04:25:00;;;;;;;18.37;12.67;;;7.40;99.90;;;;;;5052065;28;20464;-62
2023/05/04 04:27:25;;;;;;;19.03;12.17;;;7.40;99.90;;;;;;5059546;28;20517;-61
2023/05/04 04:29:51;;;;;;;17.70;12.90;;;7.30;99.90;;;;;;5057921;28;20174;-63
2023/05/04 04:32:17;;;;;;;25.77;12.63;;;7.40;99.90;;;;;;5060920;28;20545;-61
2023/05/04 04:34:43;;;;;;;19.30;12.93;;;7.30;99.90;;;;;;5064611;28;20234;-61
2023/05/04 04:37:08;;;;;;;18.17;12.90;;;7.40;99.90;;;;;;5064250;28;20700;-57
2023/05/04 04:39:34;;;;;;;22.63;13.30;;;7.40;99.90;;;;;;5053666;28;20441;-63
2023/05/04 04:42:01;;;;;;;21.40;13.90;;;7.40;99.90;;;;;;5060937;28;20339;-60
2023/05/04 04:44:27;;;;;;;19.03;12.90;;;7.40;99.90;;;;;;5059039;28;20226;-60
2023/05/04 04:46:52;;;;;;;20.40;13.43;;;7.50;99.90;;;;;;5045134;28;20860;-60
2023/05/04 04:49:18;;;;;;;23.17;13.20;;;7.50;99.90;;;;;;5059304;28;20182;-61
2023/05/04 04:51:44;;;;;;;21.50;13.50;;;7.50;99.90;;;;;;5062854;28;20167;-61
2023/05/04 04:54:10;;;;;;;22.83;13.30;;;7.60;99.90;;;;;;5064880;28;20185;-62
2023/05/04 04:56:38;;;;;;;18.10;12.67;;;7.60;99.90;;;;;;5056354;28;20175;-61
2023/05/04 04:59:03;;;;;;;23.00;13.13;;;7.60;99.90;;;;;;5040744;28;20440;-61
2023/05/04 05:01:29;;;;;;;20.10;12.57;;;7.60;99.90;;;;;;5063703;28;20525;-62
2023/05/04 05:03:54;;;;;;;22.57;13.90;;;7.60;99.90;;;;;;5062693;28;20179;-62
2023/05/04 05:06:20;;;;;;;20.03;13.40;;;7.70;99.90;;;;;;5065374;28;20209;-61
2023/05/04 05:08:45;;;;;;;22.60;13.33;;;7.70;99.90;;;;;;5061473;28;20188;-61
2023/05/04 05:11:11;;;;;;;18.37;13.27;;;7.80;99.90;;;;;;5063078;28;20266;-61
2023/05/04 05:13:37;;;;;;;24.30;14.43;;;7.80;99.90;;;;;;5069415;28;20177;-62
2023/05/04 05:16:03;;;;;;;27.83;14.87;;;7.80;99.90;;;;;;5059683;28;20220;-61
2023/05/04 05:18:28;;;;;;;28.27;14.03;;;8.00;99.90;;;;;;5056003;28;20168;-62
2023/05/04 05:20:55;;;;;;;19.57;14.10;;;8.00;99.90;;;;;;5062907;28;20175;-61
2023/05/04 05:23:21;;;;;;;20.67;14.00;;;8.10;99.90;;;;;;5062597;28;20178;-61
2023/05/04 05:25:46;;;;;;;22.20;12.60;;;8.20;99.90;;;;;;5060161;28;20457;-61
2023/05/04 05:28:15;;;;;;;23.37;13.90;;;8.30;99.90;;;;;;5064024;28;20178;-61
2023/05/04 05:30:40;;;;;;;22.77;15.20;;;8.40;99.90;;;;;;5065374;28;20178;-61
2023/05/04 05:33:06;;;;;;;18.57;13.70;;;8.40;99.90;;;;;;5064422;28;20433;-61
2023/05/04 05:35:32;;;;;;;19.00;12.50;;;8.50;99.90;;;;;;5064747;28;20212;-61
2023/05/04 05:37:57;;;;;;;23.63;14.43;;;8.60;99.90;;;;;;5064108;28;20253;-61
2023/05/04 05:40:23;;;;;;;18.13;13.30;;;8.70;99.90;;;;;;5062978;28;20204;-61
2023/05/04 05:42:49;;;;;;;18.90;12.60;;;8.70;99.90;;;;;;5062674;28;20209;-61
2023/05/04 05:45:14;;;;;;;19.83;13.40;;;8.90;99.90;;;;;;5064741;28;20297;-61
2023/05/04 05:47:40;;;;;;;24.10;14.37;;;8.90;99.90;;;;;;5062437;28;20240;-61
2023/05/04 05:50:06;;;;;;;27.43;13.73;;;9.00;99.90;;;;;;5063054;28;20659;-61
2023/05/04 05:52:32;;;;;;;24.80;16.67;;;9.10;99.90;;;;;;5062107;28;20177;-62
2023/05/04 05:54:57;;;;;;;25.03;15.93;;;9.20;99.90;;;;;;5059602;28;20641;-61
2023/05/04 05:57:23;;;;;;;26.47;16.80;;;9.30;99.90;;;;;;5060946;28;20182;-61
2023/05/04 05:59:49;;;;;;;31.90;18.60;;;9.50;99.90;;;;;;5062494;28;20221;-62
2023/05/04 06:02:14;;;;;;;29.07;19.80;;;9.60;99.90;;;;;;5065259;28;20327;-61
2023/05/04 06:04:41;;;;;;;30.70;18.50;;;9.70;99.90;;;;;;5058196;28;21039;-61
2023/05/04 06:07:06;;;;;;;30.33;18.50;;;9.90;99.90;;;;;;5061536;28;20178;-62
2023/05/04 06:09:32;;;;;;;24.10;17.53;;;10.00;99.90;;;;;;5056743;28;20848;-62
2023/05/04 06:11:58;;;;;;;25.47;17.90;;;10.00;99.90;;;;;;5064921;28;20173;-61
2023/05/04 06:14:24;;;;;;;28.87;18.93;;;10.10;99.90;;;;;;5058366;28;20676;-62
2023/05/04 06:16:49;;;;;;;25.00;17.07;;;10.20;99.90;;;;;;5058597;28;20179;-61
2023/05/04 06:19:15;;;;;;;22.47;15.53;;;10.30;99.90;;;;;;5061144;28;20175;-61
2023/05/04 06:21:41;;;;;;;28.53;16.70;;;10.40;99.90;;;;;;5063410;28;20183;-61
2023/05/04 06:24:06;;;;;;;20.47;14.80;;;10.60;99.90;;;;;;5061044;28;20285;-61
2023/05/04 06:26:32;;;;;;;24.37;16.10;;;10.60;99.00;;;;;;5039083;28;20178;-61
2023/05/04 06:28:57;;;;;;;23.00;15.43;;;10.70;98.30;;;;;;5061504;28;20185;-61
2023/05/04 06:31:23;;;;;;;26.20;16.57;;;10.80;98.10;;;;;;5057827;28;20167;-61
2023/05/04 06:33:49;;;;;;;28.17;15.93;;;10.80;98.10;;;;;;5050718;28;20209;-61
2023/05/04 06:36:15;;;;;;;22.87;16.27;;;11.00;97.20;;;;;;5053941;28;20297;-61
2023/05/04 06:38:41;;;;;;;20.83;14.50;;;11.00;96.80;;;;;;5053971;28;21477;-63
2023/05/04 06:41:06;;;;;;;27.77;16.57;;;11.20;96.90;;;;;;5047166;28;20170;-62
2023/05/04 06:43:32;;;;;;;24.57;16.60;;;11.30;96.10;;;;;;5057257;28;20258;-62
2023/05/04 06:46:02;;;;;;;22.17;15.80;;;11.40;94.80;;;;;;5054050;28;20365;-61
2023/05/04 06:48:28;;;;;;;21.43;14.80;;;11.50;93.60;;;;;;5056142;28;20428;-61
2023/05/04 06:50:54;;;;;;;19.57;14.37;;;11.60;93.10;;;;;;5061094;28;20460;-61
2023/05/04 06:53:20;;;;;;;23.30;16.47;;;11.70;92.40;;;;;;5051169;28;20524;-61
2023/05/04 06:55:46;;;;;;;22.00;14.87;;;11.70;92.00;;;;;;5053134;28;20209;-64
2023/05/04 06:58:11;;;;;;;23.20;14.23;;;11.80;91.60;;;;;;5056037;28;20425;-61
2023/05/04 07:00:38;;;;;;;23.47;14.37;;;11.90;90.20;;;;;;5059930;28;20174;-61
2023/05/04 07:03:04;;;;;;;20.10;13.73;;;11.90;89.90;;;;;;5063016;28;20261;-61
2023/05/04 07:05:32;;;;;;;22.00;15.83;;;12.10;89.00;;;;;;5058673;28;20564;-61
2023/05/04 07:07:58;;;;;;;20.70;15.37;;;12.10;86.30;;;;;;5060757;28;20224;-61
2023/05/04 07:10:24;;;;;;;21.73;15.57;;;12.20;82.20;;;;;;5057103;28;20446;-61
2023/05/04 07:12:49;;;;;;;26.20;15.70;;;12.30;82.80;;;;;;5061768;28;20183;-61
2023/05/04 07:15:15;;;;;;;22.97;14.90;;;12.30;82.40;;;;;;5041190;28;20198;-61
2023/05/04 07:17:41;;;;;;;21.37;14.70;;;12.30;79.70;;;;;;5053717;28;20190;-61
2023/05/04 07:20:07;;;;;;;21.30;14.10;;;12.40;80.70;;;;;;5062876;28;20705;-61
2023/05/04 07:22:32;;;;;;;19.83;14.47;;;12.50;82.20;;;;;;5060148;28;20197;-61
2023/05/04 07:24:59;;;;;;;19.20;14.03;;;12.60;82.40;;;;;;5060990;28;20460;-61
2023/05/04 07:27:25;;;;;;;28.53;16.10;;;12.70;81.30;;;;;;5062424;28;20272;-61
2023/05/04 07:29:50;;;;;;;23.97;15.77;;;12.90;79.70;;;;;;5063272;28;20467;-61
2023/05/04 07:32:16;;;;;;;21.23;13.97;;;12.90;77.80;;;;;;5063541;28;20600;-60
2023/05/04 07:34:45;;;;;;;20.57;12.97;;;13.10;79.60;;;;;;5059645;28;20826;-61
2023/05/04 07:37:12;;;;;;;25.27;13.40;;;13.20;78.80;;;;;;5059923;28;20189;-61
2023/05/04 07:39:37;;;;;;;19.87;12.77;;;13.30;79.20;;;;;;5053641;28;20436;-62
2023/05/04 07:42:04;;;;;;;14.73;10.80;;;13.50;78.70;;;;;;5057503;28;20961;-61
2023/05/04 07:44:30;;;;;;;16.40;11.93;;;13.60;78.20;;;;;;5057146;28;20203;-62
2023/05/04 07:46:57;;;;;;;13.10;10.70;;;13.70;77.60;;;;;;5057960;28;20928;-62
2023/05/04 07:49:23;;;;;;;17.07;11.77;;;13.80;75.10;;;;;;5057389;28;20445;-62
2023/05/04 07:51:49;;;;;;;16.23;11.33;;;13.90;76.30;;;;;;5057004;28;20479;-61
2023/05/04 07:54:15;;;;;;;16.70;11.60;;;14.10;75.60;;;;;;5062379;28;20594;-61
2023/05/04 07:56:41;;;;;;;19.10;11.63;;;14.20;75.50;;;;;;5058289;28;20441;-62
2023/05/04 07:59:06;;;;;;;14.93;10.20;;;14.40;75.20;;;;;;5058682;28;20204;-62
2023/05/04 08:01:32;;;;;;;16.40;10.37;;;14.50;74.60;;;;;;5058763;28;20175;-61
2023/05/04 08:03:57;;;;;;;15.73;10.50;;;14.50;74.20;;;;;;5058087;28;20174;-61
2023/05/04 08:06:23;;;;;;;12.20;9.33;;;14.60;74.40;;;;;;5063217;28;20202;-61
2023/05/04 08:08:49;;;;;;;12.83;9.90;;;14.80;74.80;;;;;;5064851;28;20193;-61
2023/05/04 08:11:15;;;;;;;15.93;9.83;;;14.90;73.50;;;;;;5067841;28;20202;-62
2023/05/04 08:13:41;;;;;;;11.73;9.00;;;15.00;72.70;;;;;;5065865;28;20205;-61
2023/05/04 08:16:08;;;;;;;14.93;10.47;;;15.10;72.00;;;;;;5061785;28;20497;-61
2023/05/04 08:18:34;;;;;;;14.27;10.60;;;15.20;71.90;;;;;;5045164;28;20178;-60
2023/05/04 08:20:59;;;;;;;14.77;9.67;;;15.30;71.30;;;;;;5062839;28;20920;-61
2023/05/04 08:23:25;;;;;;;14.13;8.83;;;15.40;70.70;;;;;;5062228;28;20199;-61
2023/05/04 08:25:51;;;;;;;14.43;8.97;;;15.50;70.60;;;;;;5067956;28;20218;-61
2023/05/04 08:28:17;;;;;;;13.87;9.60;;;15.60;70.00;;;;;;5063107;28;20192;-62
2023/05/04 08:30:43;;;;;;;12.67;9.17;;;15.70;69.00;;;;;;5060734;28;20175;-61
2023/05/04 08:33:08;;;;;;;10.63;7.97;;;15.90;68.50;;;;;;5068251;28;20502;-61
2023/05/04 08:35:34;;;;;;;8.23;7.43;;;16.00;67.50;;;;;;5060680;28;20714;-62
2023/05/04 08:38:00;;;;;;;12.60;8.00;;;16.10;67.00;;;;;;5066908;28;20201;-61
2023/05/04 08:40:26;;;;;;;10.57;8.07;;;16.10;66.60;;;;;;5064886;28;20190;-61
2023/05/04 08:42:52;;;;;;;7.73;6.70;;;16.20;66.10;;;;;;5061893;28;20960;-61
2023/05/04 08:45:17;;;;;;;8.87;7.30;;;16.30;65.20;;;;;;5056052;28;20210;-61
2023/05/04 08:47:43;;;;;;;9.67;7.07;;;16.40;65.60;;;;;;5058345;28;20555;-61
2023/05/04 08:50:10;;;;;;;8.70;6.90;;;16.60;65.40;;;;;;5067876;28;20189;-60
2023/05/04 08:52:37;;;;;;;8.50;5.40;;;16.70;64.80;;;;;;5059072;28;20187;-58
2023/05/04 08:55:05;;;;;;;7.23;6.30;;;16.80;64.10;;;;;;5049493;28;20977;-61
2023/05/04 08:57:32;;;;;;;6.60;4.83;;;16.90;61.90;;;;;;5053198;28;20476;-63
2023/05/04 08:59:59;;;;;;;5.93;5.20;;;17.10;60.10;;;;;;5066745;28;20987;-61
2023/05/04 09:02:26;;;;;;;6.60;5.17;;;17.20;57.90;;;;;;5064277;28;21700;-61
2023/05/04 09:04:53;;;;;;;5.00;4.50;;;17.30;58.20;;;;;;5052858;28;21015;-61
2023/05/04 09:07:20;;;;;;;6.57;5.07;;;17.40;57.80;;;;;;5069291;28;20531;-61
2023/05/04 09:09:49;;;;;;;5.60;5.07;;;17.50;57.40;;;;;;5061770;28;20436;-60
2023/05/04 09:12:15;;;;;;;5.80;4.63;;;17.70;57.40;;;;;;5069054;28;20463;-61
2023/05/04 09:14:41;;;;;;;5.30;4.63;;;17.80;57.30;;;;;;5062275;28;20470;-61
2023/05/04 09:17:24;;;;;;;5.60;5.00;;;17.90;57.30;;;;;;5055313;28;20487;-60
2023/05/04 09:19:59;;;;;;;10.00;5.07;;;18.00;55.40;;;;;;5063579;28;20502;-61
2023/05/04 09:22:26;;;;;;;6.03;5.43;;;18.00;55.10;;;;;;5054411;28;20440;-61
2023/05/04 09:24:52;;;;;;;6.40;5.17;;;18.10;55.60;;;;;;5064716;28;20980;-60
2023/05/04 09:27:18;;;;;;;5.17;4.67;;;18.20;55.80;;;;;;5058513;28;20444;-60
2023/05/04 09:29:52;;;;;;;5.80;5.30;;;18.20;55.60;;;;;;5057811;28;20436;-61
2023/05/04 09:32:18;;;;;;;9.87;5.80;;;18.30;56.20;;;;;;5059090;28;20224;-57
2023/05/04 09:34:51;;;;;;;5.83;5.20;;;18.40;55.30;;;;;;5066322;28;20588;-58
2023/05/04 09:37:20;;;;;;;10.40;5.10;;;18.40;55.30;;;;;;5054884;28;21299;-57
2023/05/04 09:39:58;;;;;;;9.47;4.67;;;18.50;55.40;;;;;;5061682;28;21025;-55
2023/05/04 09:42:25;;;;;;;7.20;3.90;;;18.60;55.10;;;;;;5057613;28;20489;-57
2023/05/04 09:45:07;;;;;;;6.80;4.30;;;18.70;54.10;;;;;;5054297;28;20932;-57
2023/05/04 09:47:33;;;;;;;6.03;5.43;;;18.70;52.70;;;;;;5060322;28;20429;-59
2023/05/04 09:50:09;;;;;;;7.37;5.70;;;18.70;53.40;;;;;;5063918;28;21190;-59
2023/05/04 09:52:36;;;;;;;9.47;5.40;;;18.80;54.30;;;;;;5064020;28;20671;-58
2023/05/04 09:55:03;;;;;;;6.80;4.13;;;18.90;54.00;;;;;;5062452;28;20453;-61
2023/05/04 09:57:29;;;;;;;6.20;4.97;;;19.10;55.10;;;;;;5062315;28;20439;-62
2023/05/04 09:59:55;;;;;;;7.03;5.90;;;19.20;56.70;;;;;;5062211;28;20519;-61
2023/05/04 10:02:21;;;;;;;6.23;5.63;;;19.40;56.40;;;;;;5046103;28;20547;-61
2023/05/04 10:04:48;;;;;;;10.43;6.20;;;19.50;55.10;;;;;;5058396;28;20923;-61
2023/05/04 10:07:15;;;;;;;9.43;6.33;;;19.60;53.90;;;;;;5059468;28;20436;-62
2023/05/04 10:09:41;;;;;;;8.40;7.30;;;19.60;54.40;;;;;;5053621;28;21058;-63
2023/05/04 10:12:07;;;;;;;6.97;6.00;;;19.70;54.00;;;;;;5061576;28;20421;-61
2023/05/04 10:14:37;;;;;;;10.10;6.87;;;19.80;54.20;;;;;;5060934;28;20206;-62
2023/05/04 10:17:33;;;;;;;7.70;6.70;;;19.80;53.00;;;;;;5026008;28;20441;-63
2023/05/04 10:20:23;;;;;;;7.73;5.20;;;19.70;52.50;;;;;;5057178;28;20465;-63
2023/05/04 10:23:19;;;;;;;9.00;6.13;;;19.70;53.20;;;;;;5061869;28;20535;-63
2023/05/04 10:25:56;;;;;;;7.90;5.63;;;19.80;53.50;;;;;;5063784;28;20471;-63
2023/05/04 10:29:01;;;;;;;8.33;5.40;;;19.90;53.50;;;;;;5064322;28;20428;-63
2023/05/04 10:31:39;;;;;;;11.90;5.60;;;19.90;52.60;;;;;;5018290;28;20848;-62
2023/05/04 10:34:06;;;;;;;9.10;6.37;;;20.10;51.80;;;;;;5054581;28;20523;-62
2023/05/04 10:36:39;;;;;;;7.90;5.93;;;20.20;50.70;;;;;;5053341;28;20575;-62
2023/05/04 10:39:31;;;;;;;8.47;5.97;;;20.30;50.50;;;;;;5055732;28;22269;-61
2023/05/04 10:42:00;;;;;;;11.33;6.70;;;20.30;49.50;;;;;;5058698;28;21363;-63
2023/05/04 10:44:27;;;;;;;7.00;6.17;;;20.30;50.80;;;;;;5061086;28;20472;-63
2023/05/04 10:47:11;;;;;;;8.10;6.87;;;20.40;51.00;;;;;;5060644;28;20433;-62
2023/05/04 10:49:37;;;;;;;9.50;7.57;;;20.60;51.30;;;;;;5055483;28;20855;-62
2023/05/04 10:52:09;;;;;;;10.90;7.00;;;20.60;50.70;;;;;;5058881;28;20445;-62
2023/05/04 10:54:36;;;;;;;10.07;6.40;;;20.60;51.30;;;;;;5039816;28;20229;-62
2023/05/04 10:57:07;;;;;;;9.03;7.17;;;20.70;52.10;;;;;;5061567;28;20440;-62
2023/05/04 10:59:33;;;;;;;7.80;7.00;;;20.80;51.30;;;;;;5062736;28;20428;-62
2023/05/04 11:02:00;;;;;;;8.90;7.07;;;20.90;50.70;;;;;;5059295;28;21087;-62
2023/05/04 11:04:26;;;;;;;8.57;6.60;;;20.90;50.90;;;;;;5055162;28;20767;-57
2023/05/04 11:06:56;;;;;;;8.33;6.70;;;20.90;49.70;;;;;;5062304;28;20436;-58
2023/05/04 11:09:22;;;;;;;7.43;6.63;;;20.90;50.80;;;;;;5052762;28;20820;-61
2023/05/04 11:11:48;;;;;;;7.70;7.00;;;21.10;51.40;;;;;;5059621;28;20445;-60
2023/05/04 11:14:28;;;;;;;9.40;7.30;;;21.20;49.80;;;;;;5058053;28;20435;-60
2023/05/04 11:17:11;;;;;;;10.63;6.80;;;21.30;50.00;;;;;;5053560;28;20174;-61
2023/05/04 11:19:48;;;;;;;8.40;6.23;;;21.40;50.30;;;;;;5056612;28;20464;-61
2023/05/04 11:22:15;;;;;;;7.10;6.20;;;21.50;51.00;;;;;;5055625;28;22039;-60
2023/05/04 11:24:42;;;;;;;7.93;6.37;;;21.60;49.80;;;;;;5058058;28;20464;-60
2023/05/04 11:27:07;;;;;;;8.53;6.30;;;21.70;48.40;;;;;;5056675;28;20882;-61
2023/05/04 11:29:33;;;;;;;5.83;5.20;;;21.80;47.30;;;;;;5063261;28;20432;-61
2023/05/04 11:31:59;;;;;;;7.37;5.83;;;21.80;47.20;;;;;;5059193;28;20189;-61
2023/05/04 11:34:24;;;;;;;9.87;6.40;;;21.80;47.20;;;;;;5054134;28;20207;-62
2023/05/04 11:36:50;;;;;;;6.33;5.73;;;21.90;47.60;;;;;;5062052;28;20194;-62
2023/05/04 11:39:16;;;;;;;10.60;6.43;;;22.00;47.80;;;;;;5054622;28;20187;-62
2023/05/04 11:41:43;;;;;;;8.10;7.03;;;22.20;47.50;;;;;;5059691;28;20568;-58
2023/05/04 11:44:09;;;;;;;7.00;6.30;;;22.30;47.60;;;;;;5059198;28;20867;-58
2023/05/04 11:46:35;;;;;;;8.43;5.70;;;22.40;48.10;;;;;;5059844;28;20460;-58
2023/05/04 11:49:02;;;;;;;6.93;5.50;;;22.60;48.30;;;;;;5054768;28;20466;-58
2023/05/04 11:51:28;;;;;;;6.97;4.70;;;22.70;47.10;;;;;;5032254;28;20241;-61
2023/05/04 11:53:54;;;;;;;5.07;4.57;;;22.90;46.90;;;;;;5052278;28;20652;-60
2023/05/04 11:56:20;;;;;;;5.63;4.87;;;23.10;47.00;;;;;;5053515;28;20218;-62
2023/05/04 11:58:45;;;;;;;5.70;4.80;;;23.20;45.30;;;;;;5053894;28;20186;-60
2023/05/04 12:01:11;;;;;;;5.30;4.43;;;23.30;45.00;;;;;;5057377;28;20265;-60
2023/05/04 12:03:38;;;;;;;6.10;4.80;;;23.40;45.00;;;;;;5061443;28;20190;-60
2023/05/04 12:06:05;;;;;;;5.03;4.40;;;23.50;45.10;;;;;;5059960;28;20217;-61
2023/05/04 12:08:33;;;;;;;6.53;4.70;;;23.60;43.80;;;;;;5050615;28;20440;-60
2023/05/04 12:11:08;;;;;;;5.10;4.60;;;23.50;41.50;;;;;;5056264;28;20428;-61
2023/05/04 12:13:35;;;;;;;4.80;3.40;;;23.40;41.50;;;;;;5048760;28;20436;-60
2023/05/04 12:16:19;;;;;;;4.20;3.63;;;23.30;41.50;;;;;;5058155;28;20497;-60
2023/05/04 12:18:46;;;;;;;5.73;3.60;;;23.40;41.70;;;;;;5055132;28;21185;-61
2023/05/04 12:21:19;;;;;;;4.20;3.57;;;23.50;40.60;;;;;;5040847;28;20802;-62
2023/05/04 12:23:45;;;;;;;8.07;3.90;;;23.50;39.20;;;;;;5056171;28;20429;-61
2023/05/04 12:26:11;;;;;;;3.67;3.33;;;23.40;39.60;;;;;;5056803;28;20464;-61
2023/05/04 12:28:38;;;;;;;4.87;3.90;;;23.40;40.20;;;;;;5056849;28;20441;-60
2023/05/04 12:31:05;;;;;;;3.43;3.10;;;23.50;40.30;;;;;;5063958;28;20434;-61
2023/05/04 12:33:32;;;;;;;3.67;3.37;;;23.60;39.30;;;;;;5057362;28;20459;-61
2023/05/04 12:36:01;;;;;;;7.83;3.27;;;23.70;38.20;;;;;;5059875;28;21106;-61
2023/05/04 12:38:27;;;;;;;3.90;3.50;;;23.70;39.20;;;;;;5060438;28;20436;-61